Time;durP1;ratioP1;P1;durP2;ratioP2;P2;SDS_P1;SDS_P2;PMS_P1;PMS_P2;Temp;Humidity;BMP_temperature;BMP_pressure;BME280_temperature;BME280_humidity;BME280_pressure;Samples;Min_cycle;Max_cycle;Signal;HPM_P1;HPM_P2
2023/03/03 00:02:23;;;;;;;1999.90;999.90;;;;;;;;;;5038614;28;20577;-69
2023/03/03 00:04:49;;;;;;;1999.90;999.90;;;2.20;99.90;;;;;;5036191;28;20200;-68
2023/03/03 00:07:20;;;;;;;1999.90;999.90;;;2.40;99.90;;;;;;5034010;28;20239;-68
2023/03/03 00:09:46;;;;;;;1999.90;999.90;;;2.30;99.90;;;;;;5035478;28;20151;-69
2023/03/03 00:12:29;;;;;;;1999.90;999.90;;;2.30;99.90;;;;;;5037281;28;20454;-68
2023/03/03 00:14:55;;;;;;;1999.90;999.90;;;2.30;99.90;;;;;;5035412;28;20495;-68
2023/03/03 00:17:26;;;;;;;1999.90;999.90;;;2.30;99.90;;;;;;5036390;28;20256;-68
2023/03/03 00:19:52;;;;;;;1999.90;999.90;;;;;;;;;;5035224;28;20846;-68
2023/03/03 00:22:29;;;;;;;1999.90;999.90;;;2.30;99.90;;;;;;5033174;28;20399;-68
2023/03/03 00:24:57;;;;;;;1999.90;999.90;;;2.30;99.90;;;;;;5034541;28;20239;-69
2023/03/03 00:27:34;;;;;;;1999.90;999.90;;;2.30;99.90;;;;;;5036699;28;20411;-68
2023/03/03 00:30:00;;;;;;;1999.90;999.90;;;2.40;99.90;;;;;;5034644;28;20414;-68
2023/03/03 00:32:36;;;;;;;1999.90;999.90;;;2.40;99.90;;;;;;5033428;28;20200;-68
2023/03/03 00:35:34;;;;;;;1999.90;999.90;;;2.40;99.90;;;;;;5036343;28;20499;-69
2023/03/03 00:38:09;;;;;;;1999.90;999.90;;;2.40;99.90;;;;;;5035444;28;20407;-68
2023/03/03 00:40:37;;;;;;;1999.90;999.90;;;2.40;99.90;;;;;;5036725;28;20406;-69
2023/03/03 00:43:21;;;;;;;1999.90;999.90;;;2.50;99.90;;;;;;5033157;28;20718;-69
2023/03/03 00:45:51;;;;;;;1999.90;999.90;;;2.40;99.90;;;;;;5033735;28;20425;-69
2023/03/03 00:48:21;;;;;;;1999.90;999.90;;;2.40;99.90;;;;;;5036095;28;20407;-68
2023/03/03 00:50:48;;;;;;;1999.90;999.90;;;2.40;99.90;;;;;;5035253;28;20207;-68
2023/03/03 00:53:18;;;;;;;1999.90;999.90;;;2.40;99.90;;;;;;5035918;28;20196;-68
2023/03/03 00:55:46;;;;;;;1999.90;999.90;;;2.40;99.90;;;;;;5033928;28;20390;-68
2023/03/03 00:58:12;;;;;;;1999.90;999.90;;;2.30;99.90;;;;;;5033957;28;20396;-68
2023/03/03 01:00:39;;;;;;;1999.90;999.90;;;2.30;99.90;;;;;;5035202;28;20481;-69
2023/03/03 01:03:11;;;;;;;1999.90;999.90;;;2.60;99.90;;;;;;5038380;28;20366;-69
2023/03/03 01:05:36;;;;;;;1999.90;999.90;;;2.30;99.90;;;;;;5061975;22;20222;-72
2023/03/03 01:08:03;;;;;;;1999.90;999.90;;;2.30;99.90;;;;;;5051539;28;20406;-72
2023/03/03 01:10:33;;;;;;;1999.90;999.90;;;2.30;99.90;;;;;;5051652;28;20172;-72
2023/03/03 01:12:59;;;;;;;1999.90;999.90;;;2.20;99.90;;;;;;5050928;28;20238;-72
2023/03/03 01:15:25;;;;;;;1999.90;999.90;;;2.20;99.90;;;;;;5051666;28;20210;-72
2023/03/03 01:17:50;;;;;;;1999.90;999.90;;;2.20;99.90;;;;;;5051553;28;20168;-72
2023/03/03 01:20:17;;;;;;;1999.90;999.90;;;2.10;99.90;;;;;;5051605;28;20726;-71
2023/03/03 01:22:43;;;;;;;1999.90;999.90;;;2.00;99.90;;;;;;5051421;28;20891;-71
2023/03/03 01:25:09;;;;;;;1999.90;999.90;;;1.80;99.90;;;;;;5051671;28;20195;-72
2023/03/03 01:27:35;;;;;;;1999.90;999.90;;;1.80;99.90;;;;;;5051509;28;20262;-71
2023/03/03 01:30:02;;;;;;;1999.90;999.90;;;1.80;99.90;;;;;;5051626;28;20508;-72
2023/03/03 01:32:28;;;;;;;1999.90;999.90;;;1.70;99.90;;;;;;5051222;28;20198;-71
2023/03/03 01:34:53;;;;;;;1999.90;999.90;;;1.70;99.90;;;;;;5051378;28;20212;-72
2023/03/03 01:37:19;;;;;;;1999.90;999.90;;;1.60;99.90;;;;;;5051324;28;20207;-72
2023/03/03 01:39:53;;;;;;;1999.90;999.90;;;1.50;99.90;;;;;;5051773;28;20168;-72
2023/03/03 01:42:19;;;;;;;1999.90;999.90;;;1.50;99.90;;;;;;5051270;28;20413;-72
2023/03/03 01:44:45;;;;;;;1999.90;999.90;;;1.50;99.90;;;;;;5051244;28;20241;-72
2023/03/03 01:47:16;;;;;;;1999.90;999.90;;;1.50;99.90;;;;;;5051427;28;20241;-71
2023/03/03 01:49:54;;;;;;;1999.90;999.90;;;1.50;99.90;;;;;;5051374;28;20262;-71
2023/03/03 01:52:23;;;;;;;1999.90;999.90;;;1.40;99.90;;;;;;5051145;28;20261;-72
2023/03/03 01:55:01;;;;;;;1999.90;999.90;;;1.40;99.90;;;;;;5051358;28;20211;-72
2023/03/03 01:57:32;;;;;;;1999.90;999.90;;;1.40;99.90;;;;;;5051583;28;20203;-71
2023/03/03 02:00:01;;;;;;;1999.90;999.90;;;1.40;99.90;;;;;;5055067;28;20168;-72
2023/03/03 02:02:27;;;;;;;1999.90;999.90;;;1.40;99.90;;;;;;5054769;28;20638;-72
2023/03/03 02:04:53;;;;;;;1999.90;999.90;;;1.50;99.90;;;;;;5054741;28;20203;-72
2023/03/03 02:07:20;;;;;;;1999.90;999.90;;;1.60;99.90;;;;;;5054844;28;20178;-72
2023/03/03 02:10:10;;;;;;;1999.90;999.90;;;1.70;99.90;;;;;;5054886;28;20176;-72
2023/03/03 02:12:53;;;;;;;1999.90;999.90;;;1.70;99.90;;;;;;5054620;28;20605;-72
2023/03/03 02:15:27;;;;;;;1999.90;999.90;;;1.70;99.90;;;;;;5054754;28;20191;-72
2023/03/03 02:17:55;;;;;;;1999.90;999.90;;;1.90;99.90;;;;;;5054598;28;20660;-72
2023/03/03 02:20:50;;;;;;;1999.90;999.90;;;1.90;99.90;;;;;;5054597;28;20207;-72
2023/03/03 02:23:24;;;;;;;1999.90;999.90;;;2.00;99.90;;;;;;5050275;28;20557;-71
2023/03/03 02:25:55;;;;;;;1999.90;999.90;;;2.00;99.90;;;;;;5054513;28;20188;-72
2023/03/03 02:28:27;;;;;;;1999.90;999.90;;;2.10;99.90;;;;;;5054610;28;20168;-72
2023/03/03 02:30:54;;;;;;;1999.90;999.90;;;2.20;99.90;;;;;;5054579;28;21058;-72
2023/03/03 02:33:20;;;;;;;1999.90;999.90;;;2.10;99.90;;;;;;5054198;28;20711;-72
2023/03/03 02:35:46;;;;;;;1999.90;999.90;;;2.10;99.90;;;;;;5054221;28;20191;-71
2023/03/03 02:38:21;;;;;;;1999.90;999.90;;;2.20;99.90;;;;;;5054345;28;20793;-72
2023/03/03 02:41:10;;;;;;;1999.90;999.90;;;2.30;99.90;;;;;;5054324;28;20410;-72
2023/03/03 02:43:48;;;;;;;1999.90;999.90;;;2.50;99.90;;;;;;5054218;28;20415;-72
2023/03/03 02:46:14;;;;;;;1999.90;999.90;;;2.40;99.90;;;;;;5054105;28;20409;-72
2023/03/03 02:48:39;;;;;;;1999.90;999.90;;;2.40;99.90;;;;;;5054128;28;20780;-72
2023/03/03 02:51:05;;;;;;;1999.90;999.90;;;2.40;99.90;;;;;;5053883;28;20168;-71
2023/03/03 02:53:30;;;;;;;1999.90;999.90;;;2.30;99.90;;;;;;5054011;28;20710;-71
2023/03/03 02:55:56;;;;;;;1999.90;999.90;;;2.20;99.90;;;;;;5054151;28;20203;-72
2023/03/03 02:58:22;;;;;;;1999.90;999.90;;;2.30;99.90;;;;;;5054035;28;20172;-72
2023/03/03 03:00:47;;;;;;;1999.90;999.90;;;2.30;99.90;;;;;;5053927;28;20207;-72
2023/03/03 03:03:13;;;;;;;1999.90;999.90;;;2.30;99.90;;;;;;5053836;28;20206;-71
2023/03/03 03:05:39;;;;;;;1999.90;999.90;;;2.30;99.90;;;;;;5053609;28;20234;-72
2023/03/03 03:08:04;;;;;;;1999.90;999.90;;;2.40;99.90;;;;;;5053751;28;20418;-72
2023/03/03 03:10:30;;;;;;;1999.90;999.90;;;2.30;99.90;;;;;;5053255;28;20739;-72
2023/03/03 03:12:57;;;;;;;1999.90;999.90;;;2.30;99.90;;;;;;5053467;28;20219;-71
2023/03/03 03:15:22;;;;;;;1999.90;999.90;;;2.40;99.90;;;;;;5053594;28;21026;-72
2023/03/03 03:17:48;;;;;;;1999.90;999.90;;;2.40;99.90;;;;;;5053471;28;20179;-72
2023/03/03 03:20:14;;;;;;;1999.90;999.90;;;2.40;99.90;;;;;;5053525;28;20544;-72
2023/03/03 03:22:40;;;;;;;1999.90;999.90;;;2.50;99.90;;;;;;5053458;28;20227;-72
2023/03/03 03:25:06;;;;;;;1999.90;999.90;;;2.50;99.90;;;;;;5053401;28;20438;-72
2023/03/03 03:27:31;;;;;;;1999.90;999.90;;;2.50;99.90;;;;;;5053301;28;20167;-72
2023/03/03 03:29:57;;;;;;;1999.90;999.90;;;2.50;99.90;;;;;;5053340;28;20176;-71
2023/03/03 03:32:23;;;;;;;1999.90;999.90;;;2.40;99.90;;;;;;5053087;28;20676;-72
2023/03/03 03:34:48;;;;;;;1999.90;999.90;;;2.40;99.90;;;;;;5053332;28;20198;-72
2023/03/03 03:37:14;;;;;;;1999.90;999.90;;;2.40;99.90;;;;;;5053180;28;20174;-72
2023/03/03 03:39:40;;;;;;;1999.90;999.90;;;2.50;99.90;;;;;;5053177;28;20629;-72
2023/03/03 03:42:06;;;;;;;1999.90;999.90;;;2.50;99.90;;;;;;5052969;28;20797;-72
2023/03/03 03:44:31;;;;;;;1999.90;999.90;;;2.50;99.90;;;;;;5053005;28;20184;-72
2023/03/03 03:46:57;;;;;;;1999.90;999.90;;;2.50;99.90;;;;;;5052971;28;20174;-72
2023/03/03 03:49:23;;;;;;;1999.90;999.90;;;2.50;99.90;;;;;;5052976;28;20250;-72
2023/03/03 03:51:48;;;;;;;1999.90;999.90;;;2.50;99.90;;;;;;5052739;28;20249;-71
2023/03/03 03:54:14;;;;;;;1999.90;999.90;;;2.50;99.90;;;;;;5052885;28;20237;-71
2023/03/03 03:56:39;;;;;;;1999.90;999.90;;;2.40;99.90;;;;;;5052811;28;20160;-72
2023/03/03 03:59:06;;;;;;;1999.90;999.90;;;2.40;99.90;;;;;;5052842;28;20160;-72
2023/03/03 04:01:32;;;;;;;1999.90;999.90;;;2.30;99.90;;;;;;5052531;28;20175;-72
2023/03/03 04:03:57;;;;;;;1999.90;999.90;;;2.20;99.90;;;;;;5052550;28;20237;-72
2023/03/03 04:06:23;;;;;;;1999.90;999.90;;;2.10;99.90;;;;;;5052552;28;20199;-72
2023/03/03 04:08:49;;;;;;;1999.90;999.90;;;2.10;99.90;;;;;;5052667;28;20225;-72
2023/03/03 04:11:14;;;;;;;1999.90;999.90;;;2.20;99.90;;;;;;5052418;28;20171;-71
2023/03/03 04:13:40;;;;;;;1999.90;999.90;;;2.70;99.90;;;;;;5052387;28;20160;-72
2023/03/03 04:16:06;;;;;;;1999.90;999.90;;;2.20;99.90;;;;;;5052576;28;20175;-72
2023/03/03 04:18:31;;;;;;;1999.90;999.90;;;2.30;99.90;;;;;;5052307;28;20587;-72
2023/03/03 04:20:57;;;;;;;1999.90;999.90;;;2.30;99.90;;;;;;5051854;28;20394;-72
2023/03/03 04:23:23;;;;;;;1999.90;999.90;;;2.40;99.90;;;;;;5051967;28;20648;-72
2023/03/03 04:25:49;;;;;;;1999.90;999.90;;;2.50;99.90;;;;;;5052278;28;20193;-72
2023/03/03 04:28:15;;;;;;;1999.90;999.90;;;2.50;99.90;;;;;;5052294;28;20176;-72
2023/03/03 04:30:41;;;;;;;1999.90;999.90;;;2.50;99.90;;;;;;5052255;28;20175;-72
2023/03/03 04:33:06;;;;;;;1999.90;999.90;;;2.50;99.90;;;;;;5051990;28;20253;-72
2023/03/03 04:35:32;;;;;;;1999.90;999.90;;;2.50;99.90;;;;;;5052134;28;20192;-72
2023/03/03 04:37:58;;;;;;;1999.90;999.90;;;2.50;99.90;;;;;;5052060;28;20251;-72
2023/03/03 04:40:23;;;;;;;1999.90;999.90;;;2.50;99.90;;;;;;5052147;28;20163;-71
2023/03/03 04:42:49;;;;;;;1999.90;999.90;;;2.50;99.90;;;;;;5051866;28;20406;-71
2023/03/03 04:45:15;;;;;;;1999.90;999.90;;;2.60;99.90;;;;;;5051991;28;20260;-71
2023/03/03 04:47:41;;;;;;;1999.90;999.90;;;2.60;99.90;;;;;;5051966;28;20172;-72
2023/03/03 04:50:08;;;;;;;1999.90;999.90;;;2.70;99.90;;;;;;5052001;28;20402;-71
2023/03/03 04:52:33;;;;;;;1999.90;999.90;;;2.70;99.90;;;;;;5051769;28;20203;-72
2023/03/03 04:54:59;;;;;;;1999.90;999.90;;;2.70;99.90;;;;;;5051897;28;20426;-72
2023/03/03 04:57:25;;;;;;;1999.90;999.90;;;2.70;99.90;;;;;;5051866;28;20168;-72
2023/03/03 04:59:50;;;;;;;1999.90;999.90;;;2.70;99.90;;;;;;5051946;28;20249;-71
2023/03/03 05:02:16;;;;;;;1999.90;999.90;;;2.70;99.90;;;;;;5051687;28;20164;-72
2023/03/03 05:04:42;;;;;;;1999.90;999.90;;;2.60;99.90;;;;;;5051690;28;20241;-72
2023/03/03 05:07:08;;;;;;;1999.90;999.90;;;2.60;99.90;;;;;;5051765;28;20440;-72
2023/03/03 05:09:34;;;;;;;1999.90;999.90;;;2.50;99.90;;;;;;5051773;28;20203;-72
2023/03/03 05:11:59;;;;;;;1999.90;999.90;;;2.50;99.90;;;;;;5051449;28;20450;-72
2023/03/03 05:14:26;;;;;;;1999.90;999.90;;;2.50;99.90;;;;;;5051681;28;20186;-72
2023/03/03 05:16:51;;;;;;;1999.90;999.90;;;2.60;99.90;;;;;;5051554;28;20179;-71
2023/03/03 05:19:17;;;;;;;1999.90;999.90;;;2.50;99.90;;;;;;5051724;28;20410;-72
2023/03/03 05:21:43;;;;;;;1999.90;999.90;;;2.50;99.90;;;;;;5051502;28;20163;-72
2023/03/03 05:24:12;;;;;;;1999.90;999.90;;;2.50;99.90;;;;;;5051692;28;20274;-72
2023/03/03 05:26:40;;;;;;;1999.90;999.90;;;2.50;99.90;;;;;;5051485;28;20471;-72
2023/03/03 05:29:07;;;;;;;1999.90;999.90;;;2.50;99.90;;;;;;5051629;28;20266;-72
2023/03/03 05:31:32;;;;;;;1999.90;999.90;;;2.60;99.90;;;;;;5051327;28;20253;-72
2023/03/03 05:33:58;;;;;;;1999.90;999.90;;;2.60;99.90;;;;;;5054317;28;20196;-72
2023/03/03 05:36:24;;;;;;;1999.90;999.90;;;2.60;99.90;;;;;;5055430;28;20195;-72
2023/03/03 05:38:49;;;;;;;1999.90;999.90;;;2.50;99.90;;;;;;5055557;28;20227;-72
2023/03/03 05:41:15;;;;;;;1999.90;999.90;;;2.50;99.90;;;;;;5055196;28;20174;-72
2023/03/03 05:43:41;;;;;;;1999.90;999.90;;;2.50;99.90;;;;;;5055352;28;20804;-72
2023/03/03 05:46:06;;;;;;;1999.90;999.90;;;2.50;99.90;;;;;;5055285;28;20168;-72
2023/03/03 05:48:32;;;;;;;1999.90;999.90;;;2.60;99.90;;;;;;5055359;28;20489;-72
2023/03/03 05:50:59;;;;;;;1999.90;999.90;;;2.50;99.90;;;;;;5055314;28;20253;-71
2023/03/03 05:53:25;;;;;;;1999.90;999.90;;;2.50;99.90;;;;;;5055007;28;20250;-71
2023/03/03 05:55:51;;;;;;;1999.90;999.90;;;2.50;99.90;;;;;;5054957;28;20444;-72
2023/03/03 05:58:17;;;;;;;1999.90;999.90;;;2.60;99.90;;;;;;5055140;28;20398;-72
2023/03/03 06:00:43;;;;;;;1999.90;999.90;;;2.60;99.90;;;;;;5055193;28;20168;-72
2023/03/03 06:03:08;;;;;;;1999.90;999.90;;;2.60;99.90;;;;;;5054830;28;20414;-72
2023/03/03 06:05:34;;;;;;;1999.90;999.90;;;2.70;99.90;;;;;;5054865;28;20200;-72
2023/03/03 06:07:59;;;;;;;1999.90;999.90;;;2.60;99.90;;;;;;5054925;28;20626;-72
2023/03/03 06:10:25;;;;;;;1999.90;999.90;;;2.60;99.90;;;;;;5054867;28;20176;-72
2023/03/03 06:12:51;;;;;;;1999.90;999.90;;;2.60;99.90;;;;;;5054602;28;20192;-72
2023/03/03 06:15:17;;;;;;;1999.90;999.90;;;2.60;99.90;;;;;;5054671;28;20187;-72
2023/03/03 06:17:42;;;;;;;1999.90;999.90;;;2.50;99.90;;;;;;5054963;28;20176;-72
2023/03/03 06:20:08;;;;;;;1999.90;999.90;;;2.60;99.90;;;;;;5054723;28;20437;-72
2023/03/03 06:22:34;;;;;;;1999.90;999.90;;;2.60;99.90;;;;;;5054494;28;20167;-72
2023/03/03 06:25:00;;;;;;;1999.90;999.90;;;2.60;99.90;;;;;;5054494;28;20219;-72
2023/03/03 06:27:25;;;;;;;1999.90;999.90;;;2.60;99.90;;;;;;5054551;28;20175;-72
2023/03/03 06:29:51;;;;;;;1999.90;999.90;;;2.60;99.90;;;;;;5054530;28;20172;-72
2023/03/03 06:32:17;;;;;;;1999.90;999.90;;;2.50;99.90;;;;;;5054213;28;20577;-71
2023/03/03 06:34:42;;;;;;;1999.90;999.90;;;2.50;99.90;;;;;;5054392;28;20187;-72
2023/03/03 06:37:08;;;;;;;1999.90;999.90;;;2.50;99.90;;;;;;5054365;28;20688;-72
2023/03/03 06:39:33;;;;;;;1999.90;999.90;;;2.40;99.90;;;;;;5054366;28;20168;-71
2023/03/03 06:41:59;;;;;;;1999.90;999.90;;;2.50;99.90;;;;;;5054135;28;20216;-72
2023/03/03 06:44:25;;;;;;;1999.90;999.90;;;2.50;99.90;;;;;;5053192;28;20242;-72
2023/03/03 06:46:50;;;;;;;1999.90;999.90;;;2.50;99.90;;;;;;5054249;28;20657;-72
2023/03/03 06:49:16;;;;;;;1999.90;999.90;;;2.60;99.90;;;;;;5054260;28;20187;-72
2023/03/03 06:51:44;;;;;;;1999.90;999.90;;;2.60;99.90;;;;;;5053876;28;20203;-72
2023/03/03 06:54:14;;;;;;;1999.90;999.90;;;2.70;99.90;;;;;;5053982;28;20555;-72
2023/03/03 06:56:42;;;;;;;1999.90;999.90;;;2.70;99.90;;;;;;5053927;28;20398;-72
2023/03/03 06:59:18;;;;;;;1999.90;999.90;;;2.70;99.90;;;;;;5053910;28;20444;-72
2023/03/03 07:01:46;;;;;;;1999.90;999.90;;;2.70;99.90;;;;;;5053757;28;20401;-71
2023/03/03 07:04:32;;;;;;;1999.90;999.90;;;2.70;99.90;;;;;;5054490;28;20583;-72
2023/03/03 07:07:10;;;;;;;1999.90;999.90;;;2.60;99.90;;;;;;5059046;28;20402;-72
2023/03/03 07:09:35;;;;;;;1999.90;999.90;;;2.60;99.90;;;;;;5059288;28;20175;-72
2023/03/03 07:12:09;;;;;;;1999.90;999.90;;;2.50;99.90;;;;;;5058729;28;20629;-72
2023/03/03 07:14:49;;;;;;;1999.90;999.90;;;2.60;99.90;;;;;;5058135;28;20192;-72
2023/03/03 07:17:19;;;;;;;1999.90;999.90;;;2.60;99.90;;;;;;5058921;28;20175;-72
2023/03/03 07:19:46;;;;;;;1999.90;999.90;;;2.50;99.90;;;;;;5059431;28;20160;-72
2023/03/03 07:22:20;;;;;;;1999.90;999.90;;;2.50;99.90;;;;;;5058738;28;20465;-71
2023/03/03 07:25:00;;;;;;;1999.90;999.90;;;2.50;99.90;;;;;;5059092;28;20413;-72
2023/03/03 07:27:30;;;;;;;1999.90;999.90;;;2.60;99.90;;;;;;5058309;28;20179;-72
2023/03/03 07:30:27;;;;;;;1999.90;999.90;;;2.50;99.90;;;;;;5058729;28;20179;-70
2023/03/03 07:32:56;;;;;;;1999.90;999.90;;;2.60;99.90;;;;;;5058484;28;20239;-72
2023/03/03 07:35:27;;;;;;;1999.90;999.90;;;2.50;99.90;;;;;;5058203;28;20825;-72
2023/03/03 07:37:53;;;;;;;1999.90;999.90;;;2.60;99.90;;;;;;5059075;28;20402;-72
2023/03/03 07:40:35;;;;;;;1999.90;999.90;;;2.60;99.90;;;;;;5058769;28;20186;-72
2023/03/03 07:43:29;;;;;;;1999.90;999.90;;;2.60;99.90;;;;;;5058540;28;20194;-72
2023/03/03 07:46:20;;;;;;;1999.90;999.90;;;2.60;99.90;;;;;;5058285;28;20499;-73
2023/03/03 07:48:45;;;;;;;1999.90;999.90;;;2.70;99.90;;;;;;5057426;28;20202;-72
2023/03/03 07:51:21;;;;;;;1999.90;999.90;;;2.70;99.90;;;;;;5057971;28;20179;-72
2023/03/03 07:53:47;;;;;;;1999.90;999.90;;;2.80;99.90;;;;;;5058194;28;20676;-72
2023/03/03 07:56:34;;;;;;;1999.90;999.90;;;2.70;99.90;;;;;;5058514;28;20481;-72
2023/03/03 07:59:06;;;;;;;1999.90;999.90;;;2.80;99.90;;;;;;5059193;28;20398;-72
2023/03/03 08:01:45;;;;;;;1999.90;999.90;;;2.80;99.90;;;;;;5059338;28;20410;-72
2023/03/03 08:04:40;;;;;;;1999.90;999.90;;;2.80;99.90;;;;;;5059322;28;20444;-72
2023/03/03 08:07:15;;;;;;;1999.90;999.90;;;2.80;99.90;;;;;;5058740;28;20765;-72
2023/03/03 08:09:40;;;;;;;1999.90;999.90;;;2.70;99.90;;;;;;5059279;28;20230;-72
2023/03/03 08:12:06;;;;;;;1999.90;999.90;;;2.70;99.90;;;;;;5058896;28;20191;-72
2023/03/03 08:14:36;;;;;;;1999.90;999.90;;;2.80;99.90;;;;;;5057985;28;20199;-72
2023/03/03 08:17:20;;;;;;;1999.90;999.90;;;2.80;99.90;;;;;;5058586;28;20207;-72
2023/03/03 08:19:48;;;;;;;1999.90;999.90;;;2.80;99.90;;;;;;5057436;28;20168;-72
2023/03/03 08:22:34;;;;;;;1999.90;999.90;;;2.90;99.90;;;;;;5056811;28;20206;-73
2023/03/03 08:25:00;;;;;;;1999.90;999.90;;;2.90;99.90;;;;;;5057643;28;20421;-72
2023/03/03 08:27:25;;;;;;;1999.90;999.90;;;2.90;99.90;;;;;;5058139;28;20406;-72
2023/03/03 08:29:51;;;;;;;1999.90;999.90;;;2.90;99.90;;;;;;5058894;28;20214;-72
2023/03/03 08:32:17;;;;;;;1999.90;999.90;;;2.90;99.90;;;;;;5057723;28;20210;-72
2023/03/03 08:34:42;;;;;;;1999.90;999.90;;;2.80;99.90;;;;;;5058195;28;20210;-72
2023/03/03 08:37:08;;;;;;;1999.90;999.90;;;2.80;99.90;;;;;;5057874;28;20690;-72
2023/03/03 08:39:34;;;;;;;1999.90;999.90;;;2.70;99.90;;;;;;5058103;28;20164;-72
2023/03/03 08:42:00;;;;;;;1999.90;999.90;;;2.80;99.90;;;;;;5056460;28;20538;-71
2023/03/03 08:44:25;;;;;;;1999.90;999.90;;;2.90;99.90;;;;;;5057403;28;20429;-72
2023/03/03 08:46:51;;;;;;;1999.90;999.90;;;3.10;99.90;;;;;;5057839;28;20179;-72
2023/03/03 08:49:17;;;;;;;1999.90;999.90;;;3.10;99.90;;;;;;5058423;28;20247;-73
2023/03/03 08:51:42;;;;;;;1999.90;999.90;;;3.10;99.90;;;;;;5058410;28;20703;-72
2023/03/03 08:54:08;;;;;;;1999.90;999.90;;;3.10;99.90;;;;;;5057886;28;20426;-72
2023/03/03 08:56:34;;;;;;;1999.90;999.90;;;3.10;99.90;;;;;;5057330;28;20175;-72
2023/03/03 08:58:59;;;;;;;1999.90;999.90;;;3.00;99.90;;;;;;5057837;28;20301;-72
2023/03/03 09:01:25;;;;;;;1999.90;999.90;;;3.10;99.90;;;;;;5057182;28;20163;-72
2023/03/03 09:03:51;;;;;;;1999.90;999.90;;;3.00;99.90;;;;;;5056521;28;20183;-72
2023/03/03 09:06:16;;;;;;;1999.90;999.90;;;3.10;99.90;;;;;;5058224;28;20172;-71
2023/03/03 09:08:42;;;;;;;1999.90;999.90;;;3.10;99.90;;;;;;5057461;28;20269;-72
2023/03/03 09:11:18;;;;;;;1999.90;999.90;;;3.20;99.90;;;;;;5056424;28;20266;-72
2023/03/03 09:13:44;;;;;;;1999.90;999.90;;;3.10;99.90;;;;;;5037362;28;20171;-72
2023/03/03 09:16:14;;;;;;;1999.90;999.90;;;3.20;99.90;;;;;;5038046;28;20402;-72
2023/03/03 09:18:41;;;;;;;1999.90;999.90;;;3.30;99.90;;;;;;5056157;28;20171;-72
2023/03/03 09:21:22;;;;;;;1999.90;999.90;;;3.40;99.90;;;;;;5057149;28;20398;-72
2023/03/03 09:23:58;;;;;;;1999.90;999.90;;;3.40;99.90;;;;;;5055268;28;20887;-73
2023/03/03 09:26:40;;;;;;;1999.90;999.90;;;3.30;99.90;;;;;;5053546;28;20536;-69
2023/03/03 09:29:23;;;;;;;1999.90;999.90;;;3.00;99.90;;;;;;5054021;28;20410;-70
2023/03/03 09:32:25;;;;;;;1999.90;999.90;;;2.70;99.90;;;;;;5054443;28;20556;-72
2023/03/03 09:34:51;;;;;;;1999.90;999.90;;;2.70;99.90;;;;;;5053479;28;20413;-72
2023/03/03 09:37:22;;;;;;;1999.90;999.90;;;2.70;99.90;;;;;;5052649;28;20837;-72
2023/03/03 09:39:53;;;;;;;1999.90;999.90;;;2.70;99.90;;;;;;5053472;28;20286;-72
2023/03/03 09:42:41;;;;;;;1999.90;999.90;;;2.80;99.90;;;;;;5052449;28;20505;-71
2023/03/03 09:45:19;;;;;;;1999.90;999.90;;;2.90;99.90;;;;;;5050481;28;20438;-71
2023/03/03 09:48:11;;;;;;;1999.90;999.90;;;3.00;99.90;;;;;;5050969;28;20398;-72
2023/03/03 09:50:39;;;;;;;1999.90;999.90;;;3.20;99.90;;;;;;5051280;28;20417;-72
2023/03/03 09:53:18;;;;;;;1999.90;999.90;;;3.40;99.90;;;;;;5050362;28;20492;-72
2023/03/03 09:56:04;;;;;;;1999.90;999.90;;;3.60;99.90;;;;;;5050974;28;21017;-72
2023/03/03 09:58:48;;;;;;;1999.90;999.90;;;3.60;99.90;;;;;;5033495;28;20456;-71
2023/03/03 10:01:35;;;;;;;1999.90;999.90;;;3.30;99.90;;;;;;5050820;28;20411;-71
2023/03/03 10:04:25;;;;;;;1999.90;999.90;;;3.10;99.90;;;;;;5050747;28;20487;-71
2023/03/03 10:07:05;;;;;;;1999.90;999.90;;;2.90;99.90;;;;;;5050371;28;20183;-72
2023/03/03 10:09:56;;;;;;;1999.90;999.90;;;2.90;99.90;;;;;;5050961;28;20229;-72
2023/03/03 10:12:34;;;;;;;1999.90;999.90;;;2.90;99.90;;;;;;5050586;28;20631;-72
2023/03/03 10:15:17;;;;;;;1999.90;999.90;;;3.10;99.90;;;;;;5050408;28;20197;-72
2023/03/03 10:17:46;;;;;;;1999.90;999.90;;;3.20;99.90;;;;;;5050737;28;20468;-72
2023/03/03 10:20:20;;;;;;;1999.90;999.90;;;3.30;99.90;;;;;;5052187;28;20403;-71
2023/03/03 10:22:51;;;;;;;1999.90;999.90;;;3.50;99.90;;;;;;5053880;28;20766;-71
2023/03/03 10:25:41;;;;;;;1999.90;999.90;;;3.60;99.90;;;;;;5054319;28;20437;-70
2023/03/03 10:28:35;;;;;;;1999.90;999.90;;;3.70;99.90;;;;;;5054244;28;20850;-69
2023/03/03 10:31:31;;;;;;;1999.90;999.90;;;3.70;99.90;;;;;;5007739;28;20492;-70
2023/03/03 10:34:15;;;;;;;1999.90;999.90;;;3.60;99.90;;;;;;5054098;28;20508;-72
2023/03/03 10:36:55;;;;;;;1999.90;999.90;;;4.00;99.90;;;;;;5053670;28;20403;-72
2023/03/03 10:39:30;;;;;;;1999.90;999.90;;;4.10;99.90;;;;;;5054044;28;20406;-72
2023/03/03 10:42:34;;;;;;;1999.90;999.90;;;4.20;99.90;;;;;;5053910;28;20416;-72
2023/03/03 10:45:14;;;;;;;1999.90;999.90;;;4.30;99.90;;;;;;5002667;28;20426;-72
2023/03/03 10:47:40;;;;;;;1999.90;999.90;;;4.40;99.90;;;;;;5053841;28;20474;-72
2023/03/03 10:50:29;;;;;;;1999.90;999.90;;;4.40;99.90;;;;;;5053911;28;20814;-72
2023/03/03 10:53:02;;;;;;;1999.90;999.90;;;4.40;99.90;;;;;;5053591;28;20195;-72
2023/03/03 10:55:48;;;;;;;1999.90;999.90;;;4.40;99.90;;;;;;5053643;28;20422;-72
2023/03/03 10:58:23;;;;;;;1999.90;999.90;;;4.40;99.90;;;;;;5053211;28;20403;-72
2023/03/03 11:01:03;;;;;;;1999.90;999.90;;;4.40;99.90;;;;;;5053656;28;20398;-72
2023/03/03 11:03:58;;;;;;;1999.90;999.90;;;4.40;99.90;;;;;;5053453;28;20412;-72
2023/03/03 11:06:48;;;;;;;1999.90;999.90;;;4.40;99.90;;;;;;5047899;28;20825;-70
2023/03/03 11:09:25;;;;;;;1999.90;999.90;;;4.30;99.90;;;;;;5053354;28;20762;-73
2023/03/03 11:11:54;;;;;;;1999.90;999.90;;;4.20;99.90;;;;;;5034709;28;20568;-74
2023/03/03 11:14:32;;;;;;;1999.90;999.90;;;4.10;99.90;;;;;;5040255;28;20462;-71
2023/03/03 11:17:19;;;;;;;1999.90;999.90;;;4.20;99.90;;;;;;5033047;28;20411;-70
2023/03/03 11:20:03;;;;;;;1999.90;999.90;;;4.40;99.90;;;;;;5032391;28;20418;-70
2023/03/03 11:22:57;;;;;;;1999.90;999.90;;;4.60;99.90;;;;;;5031772;28;20471;-71
2023/03/03 11:25:52;;;;;;;1999.90;999.90;;;4.70;99.90;;;;;;5032512;28;20423;-69
2023/03/03 11:28:36;;;;;;;1999.90;999.90;;;4.80;99.90;;;;;;5031455;28;20407;-72
2023/03/03 11:31:10;;;;;;;1999.90;999.90;;;4.80;99.90;;;;;;5031532;28;20403;-73
2023/03/03 11:34:05;;;;;;;1999.90;999.90;;;4.80;99.90;;;;;;5031255;28;20461;-73
2023/03/03 11:36:40;;;;;;;1999.90;999.90;;;4.90;99.90;;;;;;5031461;28;20423;-73
2023/03/03 11:39:13;;;;;;;1999.90;999.90;;;5.00;99.90;;;;;;5031944;28;20489;-73
2023/03/03 11:41:48;;;;;;;1999.90;999.90;;;5.10;99.90;;;;;;5031444;28;20404;-73
2023/03/03 11:44:21;;;;;;;1999.90;999.90;;;5.10;99.90;;;;;;5030933;28;20419;-73
2023/03/03 11:47:07;;;;;;;1999.90;999.90;;;5.10;99.90;;;;;;5031362;28;20499;-73
2023/03/03 11:49:47;;;;;;;1999.90;999.90;;;5.10;99.90;;;;;;5031594;28;20403;-73
2023/03/03 11:52:52;;;;;;;1999.90;999.90;;;5.00;99.90;;;;;;5031153;28;20442;-70
2023/03/03 11:55:32;;;;;;;1999.90;999.90;;;4.90;99.90;;;;;;5031653;28;20419;-72
2023/03/03 11:58:10;;;;;;;1999.90;999.90;;;4.90;99.90;;;;;;5031221;28;20525;-72
2023/03/03 12:00:45;;;;;;;1999.90;999.90;;;4.90;99.90;;;;;;5031500;28;20417;-72
2023/03/03 12:03:23;;;;;;;1999.90;999.90;;;4.90;99.90;;;;;;5031255;28;20975;-72
2023/03/03 12:05:54;;;;;;;1999.90;999.90;;;4.90;99.90;;;;;;5030970;28;20469;-72
2023/03/03 12:08:29;;;;;;;1999.90;999.90;;;5.00;99.90;;;;;;5031516;28;20426;-72
2023/03/03 12:11:26;;;;;;;1999.90;999.90;;;5.00;99.90;;;;;;5031695;28;20484;-72
2023/03/03 12:14:01;;;;;;;1999.90;999.90;;;4.80;99.90;;;;;;5030404;28;20419;-72
2023/03/03 12:16:50;;;;;;;1999.90;999.90;;;4.90;99.90;;;;;;5031085;28;20962;-72
2023/03/03 12:19:27;;;;;;;1999.90;999.90;;;4.90;99.90;;;;;;5030901;28;20919;-72
2023/03/03 12:22:28;;;;;;;1999.90;999.90;;;4.80;99.90;;;;;;5030843;28;20820;-72
2023/03/03 12:25:22;;;;;;;1999.90;999.90;;;4.60;99.90;;;;;;5030782;28;20438;-72
2023/03/03 12:28:16;;;;;;;1999.90;999.90;;;4.40;99.90;;;;;;5030476;28;20422;-72
2023/03/03 12:30:54;;;;;;;1999.90;999.90;;;4.30;99.90;;;;;;5021284;28;20462;-72
2023/03/03 12:33:38;;;;;;;1999.90;999.90;;;4.20;99.90;;;;;;5030762;28;20442;-72